Terminal Aerodrome Forecast
Issued by NWS Birmingham, AL

Home | Current Version | Previous Version | Text Only | Print | Product List | Glossary On
Versions: 1 2 3 4 5 6 7 8 9 10 11 12
000
FTUS44 KBMX 251136
TAFBHM
TAF
KBHM 251136Z 2512/2612 06003KT P6SM BKN050
     FM251600 13006KT P6SM SCT250
     FM252000 06006KT P6SM SCT050=

USA.gov is the U.S. government's official web portal to all federal, state and local government web resources and services.